sensor_id;sensor_type;location;lat;lon;timestamp;temperature;humidity
17346;DHT22;8790;53.590;10.002;2023-01-01T00:00:03;15.10;99.90
17346;DHT22;8790;53.590;10.002;2023-01-01T00:02:40;15.10;99.90
17346;DHT22;8790;53.590;10.002;2023-01-01T00:05:12;15.10;99.90
17346;DHT22;8790;53.590;10.002;2023-01-01T00:07:44;15.10;99.90
17346;DHT22;8790;53.590;10.002;2023-01-01T00:10:15;15.10;99.90
17346;DHT22;8790;53.590;10.002;2023-01-01T00:13:00;15.10;99.90
17346;DHT22;8790;53.590;10.002;2023-01-01T00:15:33;15.10;99.90
17346;DHT22;8790;53.590;10.002;2023-01-01T00:18:04;15.10;99.90
17346;DHT22;8790;53.590;10.002;2023-01-01T00:20:36;15.10;99.90
17346;DHT22;8790;53.590;10.002;2023-01-01T00:23:08;15.20;99.90
17346;DHT22;8790;53.590;10.002;2023-01-01T00:25:39;15.20;99.90
17346;DHT22;8790;53.590;10.002;2023-01-01T00:28:11;15.20;99.90
17346;DHT22;8790;53.590;10.002;2023-01-01T00:30:44;15.20;99.90
17346;DHT22;8790;53.590;10.002;2023-01-01T00:33:16;15.20;99.90
17346;DHT22;8790;53.590;10.002;2023-01-01T00:35:48;15.20;99.90
17346;DHT22;8790;53.590;10.002;2023-01-01T00:38:20;15.20;99.90
17346;DHT22;8790;53.590;10.002;2023-01-01T00:40:51;15.10;99.90
17346;DHT22;8790;53.590;10.002;2023-01-01T00:43:23;15.20;99.90
17346;DHT22;8790;53.590;10.002;2023-01-01T00:45:56;15.20;99.90
17346;DHT22;8790;53.590;10.002;2023-01-01T00:48:28;15.20;99.90
17346;DHT22;8790;53.590;10.002;2023-01-01T00:51:00;15.20;99.90
17346;DHT22;8790;53.590;10.002;2023-01-01T00:53:32;15.20;99.90
17346;DHT22;8790;53.590;10.002;2023-01-01T00:56:05;15.20;99.90
17346;DHT22;8790;53.590;10.002;2023-01-01T00:58:37;15.30;99.90
17346;DHT22;8790;53.590;10.002;2023-01-01T01:01:10;15.30;99.90
17346;DHT22;8790;53.590;10.002;2023-01-01T01:03:42;15.30;99.90
17346;DHT22;8790;53.590;10.002;2023-01-01T01:06:15;15.30;99.90
17346;DHT22;8790;53.590;10.002;2023-01-01T01:08:47;15.30;99.90
17346;DHT22;8790;53.590;10.002;2023-01-01T01:11:20;15.30;99.90
17346;DHT22;8790;53.590;10.002;2023-01-01T01:13:54;15.20;99.90
17346;DHT22;8790;53.590;10.002;2023-01-01T01:16:29;15.30;99.90
17346;DHT22;8790;53.590;10.002;2023-01-01T01:19:04;15.30;99.90
17346;DHT22;8790;53.590;10.002;2023-01-01T01:21:36;15.30;99.90
17346;DHT22;8790;53.590;10.002;2023-01-01T01:24:08;15.30;99.90
17346;DHT22;8790;53.590;10.002;2023-01-01T01:26:40;15.30;99.90
17346;DHT22;8790;53.590;10.002;2023-01-01T01:29:12;15.30;99.90
17346;DHT22;8790;53.590;10.002;2023-01-01T01:31:45;15.40;99.90
17346;DHT22;8790;53.590;10.002;2023-01-01T01:34:17;15.30;99.90
17346;DHT22;8790;53.590;10.002;2023-01-01T01:36:49;15.30;99.90
17346;DHT22;8790;53.590;10.002;2023-01-01T01:39:22;15.40;99.90
17346;DHT22;8790;53.590;10.002;2023-01-01T01:41:54;15.30;99.90
17346;DHT22;8790;53.590;10.002;2023-01-01T01:44:52;15.30;99.90
17346;DHT22;8790;53.590;10.002;2023-01-01T01:47:32;15.40;99.90
17346;DHT22;8790;53.590;10.002;2023-01-01T01:50:09;15.30;99.90
17346;DHT22;8790;53.590;10.002;2023-01-01T01:52:49;15.30;99.90
17346;DHT22;8790;53.590;10.002;2023-01-01T01:55:23;15.30;99.90
17346;DHT22;8790;53.590;10.002;2023-01-01T01:57:57;15.30;99.90
17346;DHT22;8790;53.590;10.002;2023-01-01T02:00:29;15.40;99.90
17346;DHT22;8790;53.590;10.002;2023-01-01T02:03:05;15.30;99.90
17346;DHT22;8790;53.590;10.002;2023-01-01T02:05:38;15.40;99.90
17346;DHT22;8790;53.590;10.002;2023-01-01T02:08:11;15.30;99.90
17346;DHT22;8790;53.590;10.002;2023-01-01T02:10:45;15.30;99.90
17346;DHT22;8790;53.590;10.002;2023-01-01T02:13:17;15.30;99.90
17346;DHT22;8790;53.590;10.002;2023-01-01T02:15:53;15.30;99.90
17346;DHT22;8790;53.590;10.002;2023-01-01T02:18:31;15.30;99.90
17346;DHT22;8790;53.590;10.002;2023-01-01T02:21:06;15.30;99.90
17346;DHT22;8790;53.590;10.002;2023-01-01T02:26:52;15.40;99.90
17346;DHT22;8790;53.590;10.002;2023-01-01T02:29:46;15.40;99.90
17346;DHT22;8790;53.590;10.002;2023-01-01T02:32:21;15.40;99.90
17346;DHT22;8790;53.590;10.002;2023-01-01T02:34:56;15.40;99.90
17346;DHT22;8790;53.590;10.002;2023-01-01T02:37:29;15.30;99.90
17346;DHT22;8790;53.590;10.002;2023-01-01T02:40:02;15.30;99.90
17346;DHT22;8790;53.590;10.002;2023-01-01T02:42:34;15.30;99.90
17346;DHT22;8790;53.590;10.002;2023-01-01T02:45:08;15.40;99.90
17346;DHT22;8790;53.590;10.002;2023-01-01T02:47:41;15.30;99.90
17346;DHT22;8790;53.590;10.002;2023-01-01T02:50:14;15.30;99.90
17346;DHT22;8790;53.590;10.002;2023-01-01T02:52:57;15.30;99.90
17346;DHT22;8790;53.590;10.002;2023-01-01T02:55:38;15.30;99.90
17346;DHT22;8790;53.590;10.002;2023-01-01T02:58:22;15.30;99.90
17346;DHT22;8790;53.590;10.002;2023-01-01T03:01:20;15.30;99.90
17346;DHT22;8790;53.590;10.002;2023-01-01T03:04:00;15.30;99.90
17346;DHT22;8790;53.590;10.002;2023-01-01T03:06:38;15.30;99.90
17346;DHT22;8790;53.590;10.002;2023-01-01T03:09:15;15.20;99.90
17346;DHT22;8790;53.590;10.002;2023-01-01T03:11:55;15.20;99.90
17346;DHT22;8790;53.590;10.002;2023-01-01T03:14:36;15.20;99.90
17346;DHT22;8790;53.590;10.002;2023-01-01T03:17:19;15.20;99.90
17346;DHT22;8790;53.590;10.002;2023-01-01T03:19:52;15.20;99.90
17346;DHT22;8790;53.590;10.002;2023-01-01T03:22:29;15.20;99.90
17346;DHT22;8790;53.590;10.002;2023-01-01T03:25:05;15.10;99.90
17346;DHT22;8790;53.590;10.002;2023-01-01T03:27:40;15.10;99.90
17346;DHT22;8790;53.590;10.002;2023-01-01T03:30:14;15.10;99.90
17346;DHT22;8790;53.590;10.002;2023-01-01T03:32:53;15.10;99.90
17346;DHT22;8790;53.590;10.002;2023-01-01T03:35:37;15.10;99.90
17346;DHT22;8790;53.590;10.002;2023-01-01T03:38:13;15.10;99.90
17346;DHT22;8790;53.590;10.002;2023-01-01T03:40:49;15.10;99.90
17346;DHT22;8790;53.590;10.002;2023-01-01T03:43:30;15.10;99.90
17346;DHT22;8790;53.590;10.002;2023-01-01T03:46:07;15.00;99.90
17346;DHT22;8790;53.590;10.002;2023-01-01T03:48:40;15.00;99.90
17346;DHT22;8790;53.590;10.002;2023-01-01T03:51:38;15.00;99.90
17346;DHT22;8790;53.590;10.002;2023-01-01T03:54:19;15.00;99.90
17346;DHT22;8790;53.590;10.002;2023-01-01T03:56:56;15.00;99.90
17346;DHT22;8790;53.590;10.002;2023-01-01T03:59:36;15.00;99.90
17346;DHT22;8790;53.590;10.002;2023-01-01T04:02:13;15.00;99.90
17346;DHT22;8790;53.590;10.002;2023-01-01T04:04:48;15.00;99.90
17346;DHT22;8790;53.590;10.002;2023-01-01T04:07:20;15.00;99.90
17346;DHT22;8790;53.590;10.002;2023-01-01T04:09:54;15.00;99.90
17346;DHT22;8790;53.590;10.002;2023-01-01T04:12:28;14.90;99.90
17346;DHT22;8790;53.590;10.002;2023-01-01T04:15:01;14.90;99.90
17346;DHT22;8790;53.590;10.002;2023-01-01T04:17:36;15.00;99.90
17346;DHT22;8790;53.590;10.002;2023-01-01T04:20:10;14.90;99.90
17346;DHT22;8790;53.590;10.002;2023-01-01T04:22:42;15.00;99.90
17346;DHT22;8790;53.590;10.002;2023-01-01T04:25:15;15.00;99.90
17346;DHT22;8790;53.590;10.002;2023-01-01T04:27:47;14.90;99.90
17346;DHT22;8790;53.590;10.002;2023-01-01T04:30:19;14.90;99.90
17346;DHT22;8790;53.590;10.002;2023-01-01T04:32:51;14.90;99.90
17346;DHT22;8790;53.590;10.002;2023-01-01T04:35:26;14.90;99.90
17346;DHT22;8790;53.590;10.002;2023-01-01T04:37:58;14.90;99.90
17346;DHT22;8790;53.590;10.002;2023-01-01T04:40:32;14.90;99.90
17346;DHT22;8790;53.590;10.002;2023-01-01T04:43:04;14.90;99.90
17346;DHT22;8790;53.590;10.002;2023-01-01T04:45:36;15.00;99.90
17346;DHT22;8790;53.590;10.002;2023-01-01T04:48:08;14.90;99.90
17346;DHT22;8790;53.590;10.002;2023-01-01T04:50:41;15.00;99.90
17346;DHT22;8790;53.590;10.002;2023-01-01T04:53:13;14.90;99.90
17346;DHT22;8790;53.590;10.002;2023-01-01T04:55:45;14.90;99.90
17346;DHT22;8790;53.590;10.002;2023-01-01T04:58:17;14.90;99.90
17346;DHT22;8790;53.590;10.002;2023-01-01T05:00:49;14.90;99.90
17346;DHT22;8790;53.590;10.002;2023-01-01T05:03:21;14.90;99.90
17346;DHT22;8790;53.590;10.002;2023-01-01T05:06:02;14.90;99.90
17346;DHT22;8790;53.590;10.002;2023-01-01T05:08:35;14.90;99.90
17346;DHT22;8790;53.590;10.002;2023-01-01T05:11:08;14.90;99.90
17346;DHT22;8790;53.590;10.002;2023-01-01T05:13:43;15.00;99.90
17346;DHT22;8790;53.590;10.002;2023-01-01T05:16:17;14.90;99.90
17346;DHT22;8790;53.590;10.002;2023-01-01T05:18:50;15.00;99.90
17346;DHT22;8790;53.590;10.002;2023-01-01T05:21:24;15.00;99.90
17346;DHT22;8790;53.590;10.002;2023-01-01T05:23:58;15.00;99.90
17346;DHT22;8790;53.590;10.002;2023-01-01T05:26:32;15.00;99.90
17346;DHT22;8790;53.590;10.002;2023-01-01T05:29:04;15.00;99.90
17346;DHT22;8790;53.590;10.002;2023-01-01T05:31:37;15.00;99.90
17346;DHT22;8790;53.590;10.002;2023-01-01T05:34:09;15.00;99.90
17346;DHT22;8790;53.590;10.002;2023-01-01T05:36:42;15.00;99.90
17346;DHT22;8790;53.590;10.002;2023-01-01T05:39:14;15.00;99.90
17346;DHT22;8790;53.590;10.002;2023-01-01T05:41:46;15.00;99.90
17346;DHT22;8790;53.590;10.002;2023-01-01T05:44:18;15.00;99.90
17346;DHT22;8790;53.590;10.002;2023-01-01T05:46:49;15.00;99.90
17346;DHT22;8790;53.590;10.002;2023-01-01T05:49:21;15.00;99.90
17346;DHT22;8790;53.590;10.002;2023-01-01T05:51:54;15.00;99.90
17346;DHT22;8790;53.590;10.002;2023-01-01T05:54:26;15.10;99.90
17346;DHT22;8790;53.590;10.002;2023-01-01T05:56:58;15.00;99.90
17346;DHT22;8790;53.590;10.002;2023-01-01T05:59:30;15.00;99.90
17346;DHT22;8790;53.590;10.002;2023-01-01T06:02:02;15.00;99.90
17346;DHT22;8790;53.590;10.002;2023-01-01T06:04:34;15.00;99.90
17346;DHT22;8790;53.590;10.002;2023-01-01T06:07:07;15.00;99.90
17346;DHT22;8790;53.590;10.002;2023-01-01T06:09:39;15.10;99.90
17346;DHT22;8790;53.590;10.002;2023-01-01T06:12:10;15.10;99.90
17346;DHT22;8790;53.590;10.002;2023-01-01T06:14:42;15.10;99.90
17346;DHT22;8790;53.590;10.002;2023-01-01T06:17:14;15.10;99.90
17346;DHT22;8790;53.590;10.002;2023-01-01T06:19:46;15.10;99.90
17346;DHT22;8790;53.590;10.002;2023-01-01T06:22:19;15.00;99.90
17346;DHT22;8790;53.590;10.002;2023-01-01T06:27:33;15.00;99.90
17346;DHT22;8790;53.590;10.002;2023-01-01T06:30:06;15.10;99.90
17346;DHT22;8790;53.590;10.002;2023-01-01T06:32:38;15.10;99.90
17346;DHT22;8790;53.590;10.002;2023-01-01T06:35:10;15.10;99.90
17346;DHT22;8790;53.590;10.002;2023-01-01T06:37:43;15.10;99.90
17346;DHT22;8790;53.590;10.002;2023-01-01T06:40:15;15.10;99.90
17346;DHT22;8790;53.590;10.002;2023-01-01T06:42:47;15.10;99.90
17346;DHT22;8790;53.590;10.002;2023-01-01T06:45:19;15.10;99.90
17346;DHT22;8790;53.590;10.002;2023-01-01T06:47:51;15.10;99.90
17346;DHT22;8790;53.590;10.002;2023-01-01T06:50:22;15.10;99.90
17346;DHT22;8790;53.590;10.002;2023-01-01T06:52:56;15.10;99.90
17346;DHT22;8790;53.590;10.002;2023-01-01T06:55:27;15.10;99.90
17346;DHT22;8790;53.590;10.002;2023-01-01T06:57:59;15.10;99.90
17346;DHT22;8790;53.590;10.002;2023-01-01T07:00:31;15.00;99.90
17346;DHT22;8790;53.590;10.002;2023-01-01T07:03:02;15.00;99.90
17346;DHT22;8790;53.590;10.002;2023-01-01T07:05:34;15.00;99.90
17346;DHT22;8790;53.590;10.002;2023-01-01T07:08:07;15.00;99.90
17346;DHT22;8790;53.590;10.002;2023-01-01T07:10:39;15.00;99.90
17346;DHT22;8790;53.590;10.002;2023-01-01T07:13:10;15.00;99.90
17346;DHT22;8790;53.590;10.002;2023-01-01T07:15:42;15.00;99.90
17346;DHT22;8790;53.590;10.002;2023-01-01T07:18:14;14.90;99.90
17346;DHT22;8790;53.590;10.002;2023-01-01T07:20:48;14.90;99.90
17346;DHT22;8790;53.590;10.002;2023-01-01T07:23:21;14.90;99.90
17346;DHT22;8790;53.590;10.002;2023-01-01T07:25:54;14.90;99.90
17346;DHT22;8790;53.590;10.002;2023-01-01T07:28:26;14.90;99.90
17346;DHT22;8790;53.590;10.002;2023-01-01T07:30:58;14.80;99.90
17346;DHT22;8790;53.590;10.002;2023-01-01T07:33:29;14.80;99.90
17346;DHT22;8790;53.590;10.002;2023-01-01T07:36:01;14.80;99.90
17346;DHT22;8790;53.590;10.002;2023-01-01T07:38:34;14.80;99.90
17346;DHT22;8790;53.590;10.002;2023-01-01T07:41:06;14.80;99.90
17346;DHT22;8790;53.590;10.002;2023-01-01T07:43:38;14.80;99.90
17346;DHT22;8790;53.590;10.002;2023-01-01T07:46:11;14.80;99.90
17346;DHT22;8790;53.590;10.002;2023-01-01T07:48:43;14.80;99.90
17346;DHT22;8790;53.590;10.002;2023-01-01T07:51:15;14.80;99.90
17346;DHT22;8790;53.590;10.002;2023-01-01T07:53:48;14.80;99.90
17346;DHT22;8790;53.590;10.002;2023-01-01T07:56:19;14.80;99.90
17346;DHT22;8790;53.590;10.002;2023-01-01T07:58:51;14.80;99.90
17346;DHT22;8790;53.590;10.002;2023-01-01T08:01:23;14.80;99.90
17346;DHT22;8790;53.590;10.002;2023-01-01T08:03:54;14.80;99.90
17346;DHT22;8790;53.590;10.002;2023-01-01T08:06:26;14.80;99.90
17346;DHT22;8790;53.590;10.002;2023-01-01T08:08:59;14.80;99.90
17346;DHT22;8790;53.590;10.002;2023-01-01T08:11:32;14.80;99.90
17346;DHT22;8790;53.590;10.002;2023-01-01T08:14:04;14.70;99.90
17346;DHT22;8790;53.590;10.002;2023-01-01T08:16:36;14.70;99.90
17346;DHT22;8790;53.590;10.002;2023-01-01T08:19:08;14.80;99.90
17346;DHT22;8790;53.590;10.002;2023-01-01T08:21:39;14.70;99.90
17346;DHT22;8790;53.590;10.002;2023-01-01T08:24:13;14.70;99.90
17346;DHT22;8790;53.590;10.002;2023-01-01T08:26:48;14.70;99.90
17346;DHT22;8790;53.590;10.002;2023-01-01T08:29:20;14.70;99.90
17346;DHT22;8790;53.590;10.002;2023-01-01T08:31:51;14.70;99.90
17346;DHT22;8790;53.590;10.002;2023-01-01T08:34:23;14.60;99.90
17346;DHT22;8790;53.590;10.002;2023-01-01T08:36:55;14.60;99.90
17346;DHT22;8790;53.590;10.002;2023-01-01T08:39:28;14.60;99.90
17346;DHT22;8790;53.590;10.002;2023-01-01T08:42:00;14.60;99.90
17346;DHT22;8790;53.590;10.002;2023-01-01T08:44:32;14.60;99.90
17346;DHT22;8790;53.590;10.002;2023-01-01T08:47:03;14.60;99.90
17346;DHT22;8790;53.590;10.002;2023-01-01T08:49:35;14.60;99.90
17346;DHT22;8790;53.590;10.002;2023-01-01T08:52:07;14.60;99.90
17346;DHT22;8790;53.590;10.002;2023-01-01T08:54:40;14.60;99.90
17346;DHT22;8790;53.590;10.002;2023-01-01T08:57:12;14.60;99.90
17346;DHT22;8790;53.590;10.002;2023-01-01T08:59:43;14.60;99.90
17346;DHT22;8790;53.590;10.002;2023-01-01T09:02:15;14.60;99.90
17346;DHT22;8790;53.590;10.002;2023-01-01T09:04:47;14.60;99.90
17346;DHT22;8790;53.590;10.002;2023-01-01T09:07:19;14.60;99.90
17346;DHT22;8790;53.590;10.002;2023-01-01T09:09:52;14.60;99.90
17346;DHT22;8790;53.590;10.002;2023-01-01T09:12:25;14.60;99.90
17346;DHT22;8790;53.590;10.002;2023-01-01T09:14:56;14.60;99.90
17346;DHT22;8790;53.590;10.002;2023-01-01T09:17:28;14.60;99.90
17346;DHT22;8790;53.590;10.002;2023-01-01T09:20:00;14.60;99.90
17346;DHT22;8790;53.590;10.002;2023-01-01T09:22:32;14.60;99.90
17346;DHT22;8790;53.590;10.002;2023-01-01T09:25:06;14.60;99.90
17346;DHT22;8790;53.590;10.002;2023-01-01T09:27:37;14.60;99.90
17346;DHT22;8790;53.590;10.002;2023-01-01T09:30:10;14.60;99.90
17346;DHT22;8790;53.590;10.002;2023-01-01T09:32:42;14.50;99.90
17346;DHT22;8790;53.590;10.002;2023-01-01T09:35:13;14.50;99.90
17346;DHT22;8790;53.590;10.002;2023-01-01T09:37:45;14.50;99.90
17346;DHT22;8790;53.590;10.002;2023-01-01T09:40:27;14.50;99.90
17346;DHT22;8790;53.590;10.002;2023-01-01T09:43:09;14.50;99.90
17346;DHT22;8790;53.590;10.002;2023-01-01T09:45:54;14.50;99.90
17346;DHT22;8790;53.590;10.002;2023-01-01T09:48:29;14.50;99.90
17346;DHT22;8790;53.590;10.002;2023-01-01T09:51:05;14.50;99.90
17346;DHT22;8790;53.590;10.002;2023-01-01T09:53:41;14.50;99.90
17346;DHT22;8790;53.590;10.002;2023-01-01T09:56:20;14.50;99.90
17346;DHT22;8790;53.590;10.002;2023-01-01T09:58:55;14.50;99.90
17346;DHT22;8790;53.590;10.002;2023-01-01T10:01:35;14.50;99.90
17346;DHT22;8790;53.590;10.002;2023-01-01T10:04:22;14.50;99.90
17346;DHT22;8790;53.590;10.002;2023-01-01T10:07:02;14.50;99.90
17346;DHT22;8790;53.590;10.002;2023-01-01T10:09:48;14.40;99.90
17346;DHT22;8790;53.590;10.002;2023-01-01T10:12:27;14.40;99.90
17346;DHT22;8790;53.590;10.002;2023-01-01T10:15:04;14.40;99.90
17346;DHT22;8790;53.590;10.002;2023-01-01T10:17:38;14.40;99.90
17346;DHT22;8790;53.590;10.002;2023-01-01T10:20:19;14.40;99.90
17346;DHT22;8790;53.590;10.002;2023-01-01T10:22:54;14.40;99.90
17346;DHT22;8790;53.590;10.002;2023-01-01T10:25:30;14.40;99.90
17346;DHT22;8790;53.590;10.002;2023-01-01T10:28:09;14.40;99.90
17346;DHT22;8790;53.590;10.002;2023-01-01T10:30:42;14.40;99.90
17346;DHT22;8790;53.590;10.002;2023-01-01T10:33:14;14.40;99.90
17346;DHT22;8790;53.590;10.002;2023-01-01T10:35:47;14.40;99.90
17346;DHT22;8790;53.590;10.002;2023-01-01T10:38:22;14.40;99.90
17346;DHT22;8790;53.590;10.002;2023-01-01T10:41:01;14.50;99.90
17346;DHT22;8790;53.590;10.002;2023-01-01T10:43:35;14.50;99.90
17346;DHT22;8790;53.590;10.002;2023-01-01T10:46:11;14.40;99.90
17346;DHT22;8790;53.590;10.002;2023-01-01T10:49:03;14.50;99.90
17346;DHT22;8790;53.590;10.002;2023-01-01T10:51:37;14.50;99.90
17346;DHT22;8790;53.590;10.002;2023-01-01T10:54:28;14.50;99.90
17346;DHT22;8790;53.590;10.002;2023-01-01T10:57:12;14.50;99.90
17346;DHT22;8790;53.590;10.002;2023-01-01T10:59:46;14.50;99.90
17346;DHT22;8790;53.590;10.002;2023-01-01T11:02:21;14.50;99.90
17346;DHT22;8790;53.590;10.002;2023-01-01T11:05:11;14.50;99.90
17346;DHT22;8790;53.590;10.002;2023-01-01T11:07:44;14.40;99.90
17346;DHT22;8790;53.590;10.002;2023-01-01T11:10:18;14.50;99.90
17346;DHT22;8790;53.590;10.002;2023-01-01T11:12:50;14.40;99.90
17346;DHT22;8790;53.590;10.002;2023-01-01T11:15:34;14.40;99.90
17346;DHT22;8790;53.590;10.002;2023-01-01T11:18:12;14.40;99.90
17346;DHT22;8790;53.590;10.002;2023-01-01T11:20:50;14.40;99.90
17346;DHT22;8790;53.590;10.002;2023-01-01T11:23:30;14.40;99.90
17346;DHT22;8790;53.590;10.002;2023-01-01T11:26:05;14.40;99.90
17346;DHT22;8790;53.590;10.002;2023-01-01T11:28:38;14.30;99.90
17346;DHT22;8790;53.590;10.002;2023-01-01T11:31:14;14.30;99.90
17346;DHT22;8790;53.590;10.002;2023-01-01T11:33:49;14.30;99.90
17346;DHT22;8790;53.590;10.002;2023-01-01T11:36:23;14.30;99.90
17346;DHT22;8790;53.590;10.002;2023-01-01T11:39:18;14.30;99.90
17346;DHT22;8790;53.590;10.002;2023-01-01T11:41:51;14.30;99.90
17346;DHT22;8790;53.590;10.002;2023-01-01T11:44:29;14.30;99.90
17346;DHT22;8790;53.590;10.002;2023-01-01T11:47:06;14.30;99.90
17346;DHT22;8790;53.590;10.002;2023-01-01T11:49:38;14.30;99.90
17346;DHT22;8790;53.590;10.002;2023-01-01T11:52:25;14.20;99.90
17346;DHT22;8790;53.590;10.002;2023-01-01T11:55:02;14.20;99.90
17346;DHT22;8790;53.590;10.002;2023-01-01T11:57:36;14.20;99.90
17346;DHT22;8790;53.590;10.002;2023-01-01T12:00:13;14.20;99.90
17346;DHT22;8790;53.590;10.002;2023-01-01T12:02:53;14.20;99.90
17346;DHT22;8790;53.590;10.002;2023-01-01T12:05:28;14.20;99.90
17346;DHT22;8790;53.590;10.002;2023-01-01T12:08:08;14.20;99.90
17346;DHT22;8790;53.590;10.002;2023-01-01T12:10:48;14.10;99.90
17346;DHT22;8790;53.590;10.002;2023-01-01T12:13:24;14.10;99.90
17346;DHT22;8790;53.590;10.002;2023-01-01T12:16:02;14.10;99.90
17346;DHT22;8790;53.590;10.002;2023-01-01T12:18:41;14.10;99.90
17346;DHT22;8790;53.590;10.002;2023-01-01T12:21:17;14.10;99.90
17346;DHT22;8790;53.590;10.002;2023-01-01T12:23:49;14.10;99.90
17346;DHT22;8790;53.590;10.002;2023-01-01T12:26:23;14.00;99.90
17346;DHT22;8790;53.590;10.002;2023-01-01T12:29:13;14.10;99.90
17346;DHT22;8790;53.590;10.002;2023-01-01T12:31:56;14.10;99.90
17346;DHT22;8790;53.590;10.002;2023-01-01T12:34:37;14.10;99.90
17346;DHT22;8790;53.590;10.002;2023-01-01T12:37:19;14.10;99.90
17346;DHT22;8790;53.590;10.002;2023-01-01T12:40:28;14.10;99.90
17346;DHT22;8790;53.590;10.002;2023-01-01T12:43:03;14.10;99.90
17346;DHT22;8790;53.590;10.002;2023-01-01T12:45:46;14.10;99.90
17346;DHT22;8790;53.590;10.002;2023-01-01T12:48:43;14.10;99.90
17346;DHT22;8790;53.590;10.002;2023-01-01T12:51:27;14.10;99.90
17346;DHT22;8790;53.590;10.002;2023-01-01T12:57:02;14.10;99.90
17346;DHT22;8790;53.590;10.002;2023-01-01T12:59:38;14.00;99.90
17346;DHT22;8790;53.590;10.002;2023-01-01T13:02:15;13.90;99.90
17346;DHT22;8790;53.590;10.002;2023-01-01T13:04:52;14.00;99.90
17346;DHT22;8790;53.590;10.002;2023-01-01T13:07:29;14.00;99.90
17346;DHT22;8790;53.590;10.002;2023-01-01T13:10:07;13.90;99.90
17346;DHT22;8790;53.590;10.002;2023-01-01T13:12:40;13.90;99.90
17346;DHT22;8790;53.590;10.002;2023-01-01T13:15:48;13.90;99.90
17346;DHT22;8790;53.590;10.002;2023-01-01T13:18:30;13.90;99.90
17346;DHT22;8790;53.590;10.002;2023-01-01T13:21:05;13.80;99.90
17346;DHT22;8790;53.590;10.002;2023-01-01T13:23:45;13.80;99.90
17346;DHT22;8790;53.590;10.002;2023-01-01T13:26:33;13.80;99.90
17346;DHT22;8790;53.590;10.002;2023-01-01T13:29:41;13.70;99.90
17346;DHT22;8790;53.590;10.002;2023-01-01T13:32:13;13.70;99.90
17346;DHT22;8790;53.590;10.002;2023-01-01T13:35:13;13.70;99.90
17346;DHT22;8790;53.590;10.002;2023-01-01T13:37:46;13.70;99.90
17346;DHT22;8790;53.590;10.002;2023-01-01T13:40:49;13.60;99.90
17346;DHT22;8790;53.590;10.002;2023-01-01T13:43:27;13.60;99.90
17346;DHT22;8790;53.590;10.002;2023-01-01T13:46:02;13.70;99.90
17346;DHT22;8790;53.590;10.002;2023-01-01T13:49:05;13.60;99.90
17346;DHT22;8790;53.590;10.002;2023-01-01T13:55:18;13.60;99.90
17346;DHT22;8790;53.590;10.002;2023-01-01T13:58:44;13.60;99.90
17346;DHT22;8790;53.590;10.002;2023-01-01T14:01:30;13.50;99.90
17346;DHT22;8790;53.590;10.002;2023-01-01T14:04:14;13.50;99.90
17346;DHT22;8790;53.590;10.002;2023-01-01T14:06:49;13.50;99.90
17346;DHT22;8790;53.590;10.002;2023-01-01T16:06:00;19.80;99.90
17346;DHT22;8790;53.590;10.002;2023-01-01T16:09:21;19.30;99.90
17346;DHT22;8790;53.590;10.002;2023-01-01T20:30:11;21.60;99.90
17346;DHT22;8790;53.590;10.002;2023-01-01T20:32:43;20.90;99.90
17346;DHT22;8790;53.590;10.002;2023-01-01T20:58:55;18.90;99.90
17346;DHT22;8790;53.590;10.002;2023-01-01T21:01:29;17.60;99.90
17346;DHT22;8790;53.590;10.002;2023-01-01T21:04:01;16.40;99.90
17346;DHT22;8790;53.590;10.002;2023-01-01T21:06:32;15.40;99.90
17346;DHT22;8790;53.590;10.002;2023-01-01T21:09:04;14.70;99.90
17346;DHT22;8790;53.590;10.002;2023-01-01T21:11:36;14.20;99.90
17346;DHT22;8790;53.590;10.002;2023-01-01T21:14:09;13.90;99.90
17346;DHT22;8790;53.590;10.002;2023-01-01T21:16:42;13.70;99.90
17346;DHT22;8790;53.590;10.002;2023-01-01T21:19:15;13.50;99.90
17346;DHT22;8790;53.590;10.002;2023-01-01T21:21:48;13.40;99.90
17346;DHT22;8790;53.590;10.002;2023-01-01T21:24:21;13.30;99.90
17346;DHT22;8790;53.590;10.002;2023-01-01T21:26:59;13.20;99.90
17346;DHT22;8790;53.590;10.002;2023-01-01T21:29:34;13.10;99.90
17346;DHT22;8790;53.590;10.002;2023-01-01T21:32:15;13.00;99.90
17346;DHT22;8790;53.590;10.002;2023-01-01T21:34:48;13.00;99.90
17346;DHT22;8790;53.590;10.002;2023-01-01T21:37:23;12.90;99.90
17346;DHT22;8790;53.590;10.002;2023-01-01T21:40:40;12.90;99.90
17346;DHT22;8790;53.590;10.002;2023-01-01T21:43:33;12.80;99.90
17346;DHT22;8790;53.590;10.002;2023-01-01T21:46:30;12.80;99.90
17346;DHT22;8790;53.590;10.002;2023-01-01T21:49:05;12.70;99.90
17346;DHT22;8790;53.590;10.002;2023-01-01T21:51:46;12.70;99.90
17346;DHT22;8790;53.590;10.002;2023-01-01T21:54:23;12.70;99.90
17346;DHT22;8790;53.590;10.002;2023-01-01T21:56:56;12.70;99.90
17346;DHT22;8790;53.590;10.002;2023-01-01T21:59:34;12.60;99.90
17346;DHT22;8790;53.590;10.002;2023-01-01T22:02:30;12.60;99.90
17346;DHT22;8790;53.590;10.002;2023-01-01T22:05:21;12.60;99.90
17346;DHT22;8790;53.590;10.002;2023-01-01T22:07:55;12.60;99.90
17346;DHT22;8790;53.590;10.002;2023-01-01T22:10:31;12.60;99.90
17346;DHT22;8790;53.590;10.002;2023-01-01T22:13:12;12.60;99.90
17346;DHT22;8790;53.590;10.002;2023-01-01T22:15:45;12.60;99.90
17346;DHT22;8790;53.590;10.002;2023-01-01T22:18:21;12.50;99.90
17346;DHT22;8790;53.590;10.002;2023-01-01T22:20:54;12.50;99.90
17346;DHT22;8790;53.590;10.002;2023-01-01T22:23:33;12.50;99.90
17346;DHT22;8790;53.590;10.002;2023-01-01T22:26:14;12.60;99.90
17346;DHT22;8790;53.590;10.002;2023-01-01T22:28:50;12.60;99.90
17346;DHT22;8790;53.590;10.002;2023-01-01T22:31:28;12.50;99.90
17346;DHT22;8790;53.590;10.002;2023-01-01T22:34:07;12.50;99.90
17346;DHT22;8790;53.590;10.002;2023-01-01T22:36:44;12.50;99.90
17346;DHT22;8790;53.590;10.002;2023-01-01T22:39:21;12.50;99.90
17346;DHT22;8790;53.590;10.002;2023-01-01T22:41:55;12.50;99.90
17346;DHT22;8790;53.590;10.002;2023-01-01T22:44:27;12.50;99.90
17346;DHT22;8790;53.590;10.002;2023-01-01T22:46:59;12.40;99.90
17346;DHT22;8790;53.590;10.002;2023-01-01T22:49:37;12.40;99.90
17346;DHT22;8790;53.590;10.002;2023-01-01T22:52:09;12.50;99.90
17346;DHT22;8790;53.590;10.002;2023-01-01T22:54:41;12.40;99.90
17346;DHT22;8790;53.590;10.002;2023-01-01T22:57:13;12.50;99.90
17346;DHT22;8790;53.590;10.002;2023-01-01T22:59:44;12.40;99.90
17346;DHT22;8790;53.590;10.002;2023-01-01T23:02:16;12.40;99.90
17346;DHT22;8790;53.590;10.002;2023-01-01T23:04:49;12.40;99.90
17346;DHT22;8790;53.590;10.002;2023-01-01T23:07:21;12.40;99.90
17346;DHT22;8790;53.590;10.002;2023-01-01T23:09:54;12.40;99.90
17346;DHT22;8790;53.590;10.002;2023-01-01T23:12:26;12.40;99.90
17346;DHT22;8790;53.590;10.002;2023-01-01T23:14:58;12.40;99.90